TKJ295 EDDL-LTFJ
Flight info
| Callsign | TKJ295 |
|---|---|
| Flight time | N/A |
| Altitude | 35000 |
| Route | DODEN1T/23L DODEN Y853 BOMBI DCT DETEV DCT DINKU DCT BESNI DCT GOMIG DCT GOTAR DCT BABIT DCT ETIDA DCT BUFRA DCT ADORU UM19 IBODU |
| Aircraft | A321/M-SDE3FGHIRWY/LB1 |
Departure
| Time | 2026-02-17 16:08 |
|---|---|
| Airport | Düsseldorf Airport (EDDL) |
Arrival
| Time | N/A |
|---|---|
| Airport | Istanbul Sabiha Gökçen International Airport (LTFJ) |
| Time | Latitude | Longitude | Altitude | Speed | Heading |
|---|---|---|---|---|---|
| 2026-02-17 15:24 | 51.27739 | 6.76156 | 128 ft | 0 kts | 159° |
| 2026-02-17 15:54 | 51.27745 | 6.76152 | 126 ft | 2 kts | 159° |
| 2026-02-17 15:55 | 51.27763 | 6.76141 | 125 ft | 3 kts | 163° |
| 2026-02-17 15:55 | 51.27783 | 6.76134 | 126 ft | 3 kts | 175° |
| 2026-02-17 15:55 | 51.27800 | 6.76134 | 127 ft | 2 kts | 188° |
| 2026-02-17 15:55 | 51.27817 | 6.76140 | 126 ft | 3 kts | 213° |
| 2026-02-17 15:56 | 51.27831 | 6.76161 | 128 ft | 3 kts | 243° |
| 2026-02-17 15:56 | 51.27838 | 6.76191 | 130 ft | 3 kts | 259° |
| 2026-02-17 15:56 | 51.27840 | 6.76222 | 128 ft | 3 kts | 268° |
| 2026-02-17 15:56 | 51.27840 | 6.76235 | 130 ft | 0 kts | 269° |
| 2026-02-17 16:00 | 51.27840 | 6.76233 | 130 ft | 1 kts | 269° |
| 2026-02-17 16:01 | 51.27841 | 6.76200 | 130 ft | 4 kts | 270° |
| 2026-02-17 16:01 | 51.27841 | 6.76151 | 130 ft | 5 kts | 271° |
| 2026-02-17 16:01 | 51.27843 | 6.76100 | 130 ft | 3 kts | 280° |
| 2026-02-17 16:01 | 51.27855 | 6.76074 | 127 ft | 4 kts | 307° |
| 2026-02-17 16:02 | 51.27888 | 6.76054 | 129 ft | 6 kts | 353° |
| 2026-02-17 16:02 | 51.27935 | 6.76049 | 130 ft | 8 kts | 358° |
| 2026-02-17 16:02 | 51.28075 | 6.76044 | 130 ft | 11 kts | 342° |
| 2026-02-17 16:03 | 51.28136 | 6.76047 | 127 ft | 8 kts | 35° |
| 2026-02-17 16:03 | 51.28180 | 6.76128 | 126 ft | 12 kts | 52° |
| 2026-02-17 16:03 | 51.28236 | 6.76243 | 127 ft | 14 kts | 52° |
| 2026-02-17 16:03 | 51.28302 | 6.76383 | 122 ft | 17 kts | 53° |
| 2026-02-17 16:04 | 51.28376 | 6.76537 | 123 ft | 18 kts | 52° |
| 2026-02-17 16:04 | 51.28453 | 6.76701 | 126 ft | 19 kts | 52° |
| 2026-02-17 16:04 | 51.28530 | 6.76862 | 125 ft | 18 kts | 53° |
| 2026-02-17 16:04 | 51.28610 | 6.77030 | 127 ft | 20 kts | 52° |
| 2026-02-17 16:05 | 51.28699 | 6.77216 | 127 ft | 22 kts | 52° |
| 2026-02-17 16:05 | 51.28793 | 6.77413 | 128 ft | 23 kts | 52° |
| 2026-02-17 16:05 | 51.28891 | 6.77618 | 128 ft | 23 kts | 52° |
| 2026-02-17 16:05 | 51.28990 | 6.77827 | 126 ft | 24 kts | 53° |
| 2026-02-17 16:06 | 51.29091 | 6.78038 | 132 ft | 24 kts | 54° |
| 2026-02-17 16:06 | 51.29186 | 6.78239 | 138 ft | 21 kts | 53° |
| 2026-02-17 16:06 | 51.29361 | 6.78560 | 152 ft | 17 kts | 22° |
| 2026-02-17 16:07 | 51.29475 | 6.78568 | 153 ft | 17 kts | 356° |
| 2026-02-17 16:07 | 51.29542 | 6.78529 | 154 ft | 6 kts | 251° |
| 2026-02-17 16:07 | 51.29508 | 6.78445 | 151 ft | 15 kts | 233° |
| 2026-02-17 16:07 | 51.29294 | 6.77990 | 142 ft | 88 kts | 233° |
| 2026-02-17 16:08 | 51.28790 | 6.76934 | 145 ft | 146 kts | 232° |
| 2026-02-17 16:08 | 51.27507 | 6.74260 | 1506 ft | 154 kts | 241° |
| 2026-02-17 16:08 | 51.26871 | 6.72906 | 2288 ft | 150 kts | 243° |
| 2026-02-17 16:09 | 51.26214 | 6.71569 | 2763 ft | 161 kts | 243° |
| 2026-02-17 16:09 | 51.25561 | 6.70056 | 3086 ft | 177 kts | 245° |
| 2026-02-17 16:09 | 51.24801 | 6.68360 | 3336 ft | 199 kts | 242° |
| 2026-02-17 16:09 | 51.23907 | 6.66493 | 3470 ft | 226 kts | 241° |
| 2026-02-17 16:10 | 51.22868 | 6.64459 | 3948 ft | 246 kts | 230° |
| 2026-02-17 16:10 | 51.21227 | 6.63232 | 4491 ft | 280 kts | 196° |
| 2026-02-17 16:10 | 51.17268 | 6.63667 | 6172 ft | 294 kts | 170° |
| 2026-02-17 16:11 | 51.15289 | 6.64785 | 6711 ft | 309 kts | 156° |
| 2026-02-17 16:11 | 51.13568 | 6.66836 | 7489 ft | 313 kts | 132° |
| 2026-02-17 16:11 | 51.12343 | 6.69705 | 8258 ft | 315 kts | 120° |
| 2026-02-17 16:11 | 51.11240 | 6.72714 | 9059 ft | 316 kts | 119° |
| 2026-02-17 16:12 | 51.10147 | 6.75752 | 9855 ft | 316 kts | 119° |
| 2026-02-17 16:12 | 51.09044 | 6.78773 | 10539 ft | 321 kts | 119° |
| 2026-02-17 16:12 | 51.07889 | 6.81959 | 10680 ft | 344 kts | 119° |
| 2026-02-17 16:12 | 51.06659 | 6.85363 | 10827 ft | 365 kts | 119° |
| 2026-02-17 16:13 | 51.05373 | 6.88907 | 11275 ft | 374 kts | 119° |
| 2026-02-17 16:13 | 51.04063 | 6.92494 | 11901 ft | 377 kts | 119° |
| 2026-02-17 16:13 | 51.02737 | 6.96112 | 12537 ft | 380 kts | 119° |
| 2026-02-17 16:13 | 51.01397 | 6.99759 | 13179 ft | 384 kts | 119° |
| 2026-02-17 16:14 | 51.00045 | 7.03431 | 13803 ft | 387 kts | 119° |
| 2026-02-17 16:14 | 50.98678 | 7.07135 | 14324 ft | 391 kts | 118° |
| 2026-02-17 16:14 | 50.95883 | 7.14700 | 15305 ft | 403 kts | 119° |
| 2026-02-17 16:15 | 50.94455 | 7.18556 | 15797 ft | 409 kts | 118° |
| 2026-02-17 16:15 | 50.93007 | 7.22467 | 16294 ft | 414 kts | 118° |
| 2026-02-17 16:15 | 50.91540 | 7.26426 | 16755 ft | 419 kts | 118° |
| 2026-02-17 16:15 | 50.90051 | 7.30434 | 17228 ft | 425 kts | 118° |
| 2026-02-17 16:16 | 50.88538 | 7.34491 | 17699 ft | 430 kts | 118° |
| 2026-02-17 16:16 | 50.87008 | 7.38589 | 18163 ft | 435 kts | 118° |
| 2026-02-17 16:16 | 50.85458 | 7.42737 | 18563 ft | 440 kts | 118° |
| 2026-02-17 16:16 | 50.83888 | 7.46934 | 18952 ft | 445 kts | 118° |
| 2026-02-17 16:17 | 50.82174 | 7.51046 | 19329 ft | 451 kts | 124° |
| 2026-02-17 16:17 | 50.80335 | 7.55080 | 19773 ft | 454 kts | 125° |
| 2026-02-17 16:17 | 50.78447 | 7.59109 | 20179 ft | 458 kts | 126° |
| 2026-02-17 16:17 | 50.76525 | 7.63145 | 20558 ft | 462 kts | 126° |
| 2026-02-17 16:18 | 50.74575 | 7.67212 | 20940 ft | 466 kts | 126° |
| 2026-02-17 16:18 | 50.72614 | 7.71314 | 21308 ft | 470 kts | 126° |
| 2026-02-17 16:18 | 50.68663 | 7.79645 | 22019 ft | 478 kts | 126° |
| 2026-02-17 16:19 | 50.66668 | 7.83869 | 22379 ft | 482 kts | 126° |
| 2026-02-17 16:19 | 50.64655 | 7.88130 | 22732 ft | 486 kts | 126° |
| 2026-02-17 17:27 | 45.32315 | 19.91828 | 34808 ft | 471 kts | 133° |
| 2026-02-17 17:27 | 45.27959 | 19.98783 | 34808 ft | 471 kts | 133° |
| 2026-02-17 17:29 | 45.17052 | 20.16105 | 34811 ft | 470 kts | 133° |
| 2026-02-17 17:29 | 45.13399 | 20.21882 | 34798 ft | 470 kts | 133° |
| 2026-02-17 17:31 | 44.98123 | 20.45889 | 34808 ft | 468 kts | 133° |
| 2026-02-17 17:32 | 44.91616 | 20.56074 | 34803 ft | 467 kts | 133° |
| 2026-02-17 17:32 | 44.87267 | 20.62853 | 34796 ft | 466 kts | 134° |
| 2026-02-17 17:33 | 44.82924 | 20.69614 | 34789 ft | 464 kts | 134° |
| 2026-02-17 17:33 | 44.78590 | 20.76345 | 34786 ft | 463 kts | 134° |
| 2026-02-17 17:34 | 44.74253 | 20.83049 | 34775 ft | 463 kts | 134° |
| 2026-02-17 17:35 | 44.65591 | 20.96391 | 34772 ft | 461 kts | 134° |
| 2026-02-17 17:35 | 44.61266 | 21.03042 | 34761 ft | 461 kts | 134° |
| 2026-02-17 17:36 | 44.56943 | 21.09671 | 34748 ft | 460 kts | 134° |
| 2026-02-17 17:36 | 44.52605 | 21.16282 | 34761 ft | 461 kts | 134° |
| 2026-02-17 17:37 | 44.48274 | 21.22897 | 34763 ft | 461 kts | 134° |
| 2026-02-17 17:37 | 44.43945 | 21.29502 | 34763 ft | 460 kts | 134° |
| 2026-02-17 17:38 | 44.39608 | 21.36094 | 34754 ft | 460 kts | 134° |
| 2026-02-17 17:38 | 44.33080 | 21.45961 | 34183 ft | 448 kts | 134° |
| 2026-02-17 17:39 | 44.31068 | 21.49066 | 34184 ft | 434 kts | 135° |
| 2026-02-17 17:39 | 44.29119 | 21.52059 | 34626 ft | 413 kts | 135° |
| 2026-02-17 17:39 | 44.25148 | 21.58001 | 34641 ft | 424 kts | 135° |
| 2026-02-17 17:40 | 44.18973 | 21.67185 | 34711 ft | 441 kts | 135° |
| 2026-02-17 17:40 | 44.16868 | 21.70337 | 34719 ft | 448 kts | 135° |
| 2026-02-17 17:41 | 44.08331 | 21.83119 | 34705 ft | 453 kts | 135° |
| 2026-02-17 17:42 | 44.04023 | 21.89526 | 34684 ft | 454 kts | 135° |
| 2026-02-17 17:43 | 43.97553 | 21.99146 | 34692 ft | 455 kts | 135° |
| 2026-02-17 17:44 | 43.88900 | 22.11944 | 34695 ft | 455 kts | 135° |
| 2026-02-17 17:44 | 43.84568 | 22.18332 | 34694 ft | 455 kts | 135° |
| 2026-02-17 17:45 | 43.75903 | 22.31077 | 34689 ft | 454 kts | 135° |
| 2026-02-17 17:47 | 43.63863 | 22.51342 | 34683 ft | 457 kts | 126° |
| 2026-02-17 17:47 | 43.60276 | 22.58591 | 34680 ft | 457 kts | 127° |
| 2026-02-17 17:48 | 43.56679 | 22.65825 | 34682 ft | 457 kts | 127° |
| 2026-02-17 17:48 | 43.53080 | 22.73045 | 34659 ft | 457 kts | 127° |
| 2026-02-17 17:49 | 43.49478 | 22.80253 | 34663 ft | 456 kts | 127° |
| 2026-02-17 17:49 | 43.45883 | 22.87441 | 34666 ft | 455 kts | 127° |
| 2026-02-17 17:50 | 43.42290 | 22.94603 | 34652 ft | 454 kts | 127° |
| 2026-02-17 17:50 | 43.36892 | 23.05318 | 34638 ft | 454 kts | 127° |
| 2026-02-17 17:51 | 43.33298 | 23.12446 | 34637 ft | 453 kts | 127° |
| 2026-02-17 17:51 | 43.29707 | 23.19554 | 34639 ft | 453 kts | 128° |
| 2026-02-17 17:52 | 43.26106 | 23.26648 | 34619 ft | 453 kts | 128° |
| 2026-02-17 17:53 | 43.20709 | 23.37262 | 34610 ft | 452 kts | 128° |
| 2026-02-17 17:53 | 43.17106 | 23.44316 | 34609 ft | 452 kts | 128° |
| 2026-02-17 17:54 | 43.13499 | 23.51352 | 34598 ft | 451 kts | 128° |